Time;durP1;ratioP1;P1;durP2;ratioP2;P2;SDS_P1;SDS_P2;PMS_P1;PMS_P2;Temp;Humidity;BMP_temperature;BMP_pressure;BME280_temperature;BME280_humidity;BME280_pressure;Samples;Min_cycle;Max_cycle;Signal;HPM_P1;HPM_P2
2022/10/20 00:01:26;;;;;;;;;;;;;;;;;;5014853;28;19917;-25
2022/10/20 00:03:52;;;;;;;;;;;;;;;;;;5014470;28;20315;-27
2022/10/20 00:06:18;;;;;;;;;;;;;;;;;;5014832;28;19913;-30
2022/10/20 00:08:44;;;;;;;;;;;;;;;;;;5017720;28;20340;-31
2022/10/20 00:11:10;;;;;;;;;;;;;;;;;;5018179;28;20292;-25
2022/10/20 00:13:36;;;;;;;;;;;;;;;;;;5018165;28;19917;-29
2022/10/20 00:16:02;;;;;;;;;;;;;;;;;;5000747;28;20276;-25
2022/10/20 00:18:28;;;;;;;;;;;;;;;;;;5000791;28;19910;-23
2022/10/20 00:20:54;;;;;;;;;;;;;;;;;;5018322;28;20423;-24
2022/10/20 00:23:20;;;;;;;;;;;;;;;;;;5017936;28;19913;-30
2022/10/20 00:25:46;;;;;;;;;;;;;;;;;;5017801;28;20436;-25
2022/10/20 00:28:12;;;;;;;;;;;;;;;;;;5018074;28;20256;-30
2022/10/20 00:30:38;;;;;;;;;;;;;;;;;;5018846;28;19909;-27
2022/10/20 00:33:04;;;;;;;;;;;;;;;;;;5017744;28;19927;-23
2022/10/20 00:35:30;;;;;;;;;;;;;;;;;;5017823;28;19952;-26
2022/10/20 00:37:56;;;;;;;;;;;;;;;;;;5017979;28;19924;-24
2022/10/20 00:40:22;;;;;;;;;;;;;;;;;;5017678;28;20312;-25
2022/10/20 00:42:48;;;;;;;;;;;;;;;;;;5017710;28;19913;-28
2022/10/20 00:45:14;;;;;;;;;;;;;;;;;;5017624;28;19917;-25
2022/10/20 00:47:40;;;;;;;;;;;;;;;;;;5017539;28;19920;-26
2022/10/20 00:50:06;;;;;;;;;;;;;;;;;;5017442;28;20260;-25
2022/10/20 00:52:32;;;;;;;;;;;;;;;;;;5017399;28;19943;-27
2022/10/20 00:54:58;;;;;;;;;;;;;;;;;;5017659;28;19913;-25
2022/10/20 00:57:24;;;;;;;;;;;;;;;;;;5017429;28;19953;-27
2022/10/20 00:59:50;;;;;;;;;;;;;;;;;;5017283;28;19921;-24
2022/10/20 01:02:16;;;;;;;;;;;;;;;;;;5017423;28;20367;-24
2022/10/20 01:18:43;;;;;;;;;;;;;;;;;;5222671;23;19929;-24
2022/10/20 01:21:09;;;;;;;;;;;;;;;;;;5041905;28;20007;-24
2022/10/20 01:23:36;;;;;;;;;;;;;;;;;;5059642;28;19909;-24
2022/10/20 01:26:03;;;;;;;;;;;;;;;;;;5059883;28;19944;-24
2022/10/20 01:28:31;;;;;;;;;;;;;;;;;;5041640;28;19913;-24
2022/10/20 01:30:57;;;;;;;;;;;;;;;;;;5059574;28;20016;-24
2022/10/20 01:33:24;;;;;;;;;;;;;;;;;;5059466;28;19909;-24
2022/10/20 01:35:52;;;;;;;;;;;;;;;;;;5059597;28;19951;-23
2022/10/20 01:38:19;;;;;;;;;;;;;;;;;;5059264;28;20347;-24
2022/10/20 01:40:47;;;;;;;;;;;;;;;;;;5059365;28;20275;-24
2022/10/20 01:43:14;;;;;;;;;;;;;;;;;;5059736;28;19936;-23
2022/10/20 01:45:41;;;;;;;;;;;;;;;;;;5059314;28;19913;-23
2022/10/20 01:48:08;;;;;;;;;;;;;;;;;;5059591;28;20347;-24
2022/10/20 01:50:35;;;;;;;;;;;;;;;;;;5059187;28;19920;-24
2022/10/20 01:53:03;;;;;;;;;;;;;;;;;;5059232;28;20003;-24
2022/10/20 01:55:30;;;;;;;;;;;;;;;;;;5058817;28;19935;-24
2022/10/20 01:57:56;;;;;;;;;;;;;;;;;;5059231;28;19996;-23
2022/10/20 02:00:24;;;;;;;;;;;;;;;;;;5041476;28;20302;-24
2022/10/20 02:02:50;;;;;;;;;;;;;;;;;;5059910;28;19912;-23
2022/10/20 02:05:17;;;;;;;;;;;;;;;;;;5059632;28;19936;-23
2022/10/20 02:07:44;;;;;;;;;;;;;;;;;;5059026;28;19913;-23
2022/10/20 02:10:12;;;;;;;;;;;;;;;;;;5059008;28;19921;-23
2022/10/20 02:12:39;;;;;;;;;;;;;;;;;;5058570;28;19913;-24
2022/10/20 02:15:07;;;;;;;;;;;;;;;;;;5059366;28;19913;-23
2022/10/20 02:17:34;;;;;;;;;;;;;;;;;;5058778;28;19917;-23
2022/10/20 02:20:00;;;;;;;;;;;;;;;;;;5058893;28;19913;-24
2022/10/20 02:22:28;;;;;;;;;;;;;;;;;;5059122;28;19912;-24
2022/10/20 02:24:55;;;;;;;;;;;;;;;;;;5041246;28;19913;-24
2022/10/20 02:27:23;;;;;;;;;;;;;;;;;;5058447;28;19908;-23
2022/10/20 02:29:50;;;;;;;;;;;;;;;;;;5057576;28;20019;-23
2022/10/20 02:32:17;;;;;;;;;;;;;;;;;;5057982;28;19909;-23
2022/10/20 02:34:44;;;;;;;;;;;;;;;;;;5058642;28;20359;-23
2022/10/20 02:37:11;;;;;;;;;;;;;;;;;;5058259;28;20358;-23
2022/10/20 02:39:39;;;;;;;;;;;;;;;;;;5040878;28;20233;-24
2022/10/20 02:42:07;;;;;;;;;;;;;;;;;;5058337;28;19919;-23
2022/10/20 02:44:36;;;;;;;;;;;;;;;;;;5058738;28;19986;-24
2022/10/20 02:47:03;;;;;;;;;;;;;;;;;;5058705;28;20289;-23
2022/10/20 02:49:30;;;;;;;;;;;;;;;;;;5058186;28;19917;-23
2022/10/20 02:51:57;;;;;;;;;;;;;;;;;;5040860;28;19940;-24
2022/10/20 02:54:26;;;;;;;;;;;;;;;;;;5058070;28;20007;-23
2022/10/20 02:56:53;;;;;;;;;;;;;;;;;;5058312;28;19920;-23
2022/10/20 02:59:21;;;;;;;;;;;;;;;;;;5058090;28;19916;-24
2022/10/20 03:01:51;;;;;;;;;;;;;;;;;;5058083;28;20359;-24
2022/10/20 03:04:19;;;;;;;;;;;;;;;;;;5058373;28;20328;-23
2022/10/20 03:06:46;;;;;;;;;;;;;;;;;;5040570;28;19919;-23
2022/10/20 03:09:13;;;;;;;;;;;;;;;;;;5057960;28;19964;-23
2022/10/20 03:11:41;;;;;;;;;;;;;;;;;;5040009;28;19913;-24
2022/10/20 03:14:08;;;;;;;;;;;;;;;;;;5057773;28;20257;-23
2022/10/20 03:16:36;;;;;;;;;;;;;;;;;;5058790;28;19975;-24
2022/10/20 03:19:02;;;;;;;;;;;;;;;;;;5057923;28;19948;-23
2022/10/20 03:21:30;;;;;;;;;;;;;;;;;;5040117;28;20251;-23
2022/10/20 03:23:57;;;;;;;;;;;;;;;;;;5057816;28;19952;-23
2022/10/20 03:26:24;;;;;;;;;;;;;;;;;;5058488;28;19963;-24
2022/10/20 03:28:53;;;;;;;;;;;;;;;;;;5057431;28;20007;-23
2022/10/20 03:31:19;;;;;;;;;;;;;;;;;;5040677;28;19912;-24
2022/10/20 03:33:46;;;;;;;;;;;;;;;;;;5058418;28;19923;-23
2022/10/20 03:36:18;;;;;;;;;;;;;;;;;;5057633;28;20400;-23
2022/10/20 03:38:45;;;;;;;;;;;;;;;;;;5056947;28;19912;-23
2022/10/20 03:41:15;;;;;;;;;;;;;;;;;;5059539;28;19923;-24
2022/10/20 03:43:42;;;;;;;;;;;;;;;;;;5045078;28;19908;-23
2022/10/20 03:46:09;;;;;;;;;;;;;;;;;;5044532;28;19923;-24
2022/10/20 03:48:38;;;;;;;;;;;;;;;;;;5061848;28;19978;-23
2022/10/20 03:51:05;;;;;;;;;;;;;;;;;;5062324;28;19913;-23
2022/10/20 03:53:32;;;;;;;;;;;;;;;;;;5044704;28;19917;-23
2022/10/20 03:56:05;;;;;;;;;;;;;;;;;;5061735;28;19970;-24
2022/10/20 03:58:32;;;;;;;;;;;;;;;;;;5061734;28;19913;-24
2022/10/20 04:03:44;;;;;;;;;;;;;;;;;;5215401;22;20019;-23
2022/10/20 04:06:11;;;;;;;;;;;;;;;;;;5021472;28;19913;-24
2022/10/20 04:08:39;;;;;;;;;;;;;;;;;;5020749;28;19914;-24
2022/10/20 04:11:10;;;;;;;;;;;;;;;;;;5021603;28;19921;-24
2022/10/20 04:13:38;;;;;;;;;;;;;;;;;;5021408;28;19913;-24
2022/10/20 04:16:05;;;;;;;;;;;;;;;;;;5021380;28;19977;-24
2022/10/20 04:18:32;;;;;;;;;;;;;;;;;;5021483;28;20029;-24
2022/10/20 04:23:52;;;;;;;;;;;;;;;;;;5022497;28;20303;-24
2022/10/20 04:26:24;;;;;;;;;;;;;;;;;;5003210;28;19918;-24
2022/10/20 04:28:54;;;;;;;;;;;;;;;;;;5021763;28;19988;-24
2022/10/20 04:31:24;;;;;;;;;;;;;;;;;;5024271;28;20012;-24
2022/10/20 04:33:57;;;;;;;;;;;;;;;;;;5020015;28;19941;-24
2022/10/20 04:36:23;;;;;;;;;;;;;;;;;;5004169;28;19909;-24
2022/10/20 04:38:53;;;;;;;;;;;;;;;;;;5020352;28;20383;-24
2022/10/20 04:41:21;;;;;;;;;;;;;;;;;;5020245;28;19913;-24
2022/10/20 04:43:48;;;;;;;;;;;;;;;;;;5020327;28;19913;-24
2022/10/20 04:46:16;;;;;;;;;;;;;;;;;;5002739;28;19976;-23
2022/10/20 04:48:43;;;;;;;;;;;;;;;;;;5020622;28;19961;-23
2022/10/20 04:51:45;;;;;;;;;;;;;;;;;;5020180;28;19920;-24
2022/10/20 04:53:57;;;;;;;;;;;;;;;;;;5001647;28;19913;-23
2022/10/20 04:59:14;;;;;;;;;;;;;;;;;;5017916;28;19924;-23
2022/10/20 05:01:40;;;;;;;;;;;;;;;;;;4999843;28;19913;-23
2022/10/20 05:04:06;;;;;;;;;;;;;;;;;;5016969;28;20359;-24
2022/10/20 05:06:32;;;;;;;;;;;;;;;;;;5017172;28;20020;-23
2022/10/20 05:08:58;;;;;;;;;;;;;;;;;;5016921;28;20343;-23
2022/10/20 05:11:24;;;;;;;;;;;;;;;;;;4999387;28;19911;-23
2022/10/20 05:13:50;;;;;;;;;;;;;;;;;;5016675;28;19921;-23
2022/10/20 05:16:16;;;;;;;;;;;;;;;;;;5016635;28;19914;-23
2022/10/20 05:18:42;;;;;;;;;;;;;;;;;;5016387;28;19919;-23
2022/10/20 05:21:08;;;;;;;;;;;;;;;;;;5016720;28;19914;-23
2022/10/20 05:23:34;;;;;;;;;;;;;;;;;;5016702;28;19913;-23
2022/10/20 05:26:00;;;;;;;;;;;;;;;;;;5016668;28;19917;-24
2022/10/20 05:28:26;;;;;;;;;;;;;;;;;;5016443;28;20004;-24
2022/10/20 05:30:52;;;;;;;;;;;;;;;;;;5016212;28;19941;-23
2022/10/20 05:33:18;;;;;;;;;;;;;;;;;;5016671;28;19914;-23
2022/10/20 05:35:44;;;;;;;;;;;;;;;;;;5016455;28;20011;-23
2022/10/20 05:38:10;;;;;;;;;;;;;;;;;;5016721;28;20273;-23
2022/10/20 05:40:36;;;;;;;;;;;;;;;;;;5016470;28;19961;-24
2022/10/20 05:43:02;;;;;;;;;;;;;;;;;;5016350;28;19910;-24
2022/10/20 05:45:28;;;;;;;;;;;;;;;;;;5016380;28;19983;-24
2022/10/20 05:47:54;;;;;;;;;;;;;;;;;;5016142;28;20344;-24
2022/10/20 05:50:20;;;;;;;;;;;;;;;;;;5015796;28;19925;-24
2022/10/20 05:52:46;;;;;;;;;;;;;;;;;;5015951;28;19909;-25
2022/10/20 05:55:12;;;;;;;;;;;;;;;;;;5016019;28;19914;-24
2022/10/20 05:57:38;;;;;;;;;;;;;;;;;;5015896;28;19957;-24
2022/10/20 06:00:04;;;;;;;;;;;;;;;;;;5015932;28;19909;-24
2022/10/20 06:02:30;;;;;;;;;;;;;;;;;;5015481;28;19914;-24
2022/10/20 06:04:56;;;;;;;;;;;;;;;;;;5015839;28;19971;-24
2022/10/20 06:07:23;;;;;;;;;;;;;;;;;;5016127;28;19920;-24
2022/10/20 06:09:48;;;;;;;;;;;;;;;;;;5016105;28;19917;-24
2022/10/20 06:12:14;;;;;;;;;;;;;;;;;;5015768;28;20310;-24
2022/10/20 06:14:40;;;;;;;;;;;;;;;;;;5015461;28;19913;-24
2022/10/20 06:17:06;;;;;;;;;;;;;;;;;;5014728;28;20237;-24
2022/10/20 06:19:32;;;;;;;;;;;;;;;;;;5014967;28;19913;-24
2022/10/20 06:21:58;;;;;;;;;;;;;;;;;;4997294;28;20351;-24
2022/10/20 06:24:24;;;;;;;;;;;;;;;;;;5014759;28;20367;-24
2022/10/20 06:26:50;;;;;;;;;;;;;;;;;;5014814;28;19910;-24
2022/10/20 06:29:16;;;;;;;;;;;;;;;;;;5014631;28;19928;-24
2022/10/20 06:31:42;;;;;;;;;;;;;;;;;;5014629;28;19928;-24
2022/10/20 06:34:08;;;;;;;;;;;;;;;;;;5014691;28;20317;-24
2022/10/20 06:36:35;;;;;;;;;;;;;;;;;;5014921;28;19918;-24
2022/10/20 06:39:01;;;;;;;;;;;;;;;;;;5015162;28;20007;-23
2022/10/20 06:41:27;;;;;;;;;;;;;;;;;;5015030;28;20356;-23
2022/10/20 06:43:59;;;;;;;;;;;;;;;;;;5015470;28;19914;-23
2022/10/20 06:46:25;;;;;;;;;;;;;;;;;;5015372;28;19914;-30
2022/10/20 06:48:51;;;;;;;;;;;;;;;;;;5015045;28;20311;-23
2022/10/20 06:51:23;;;;;;;;;;;;;;;;;;5015469;28;20325;-24
2022/10/20 06:53:49;;;;;;;;;;;;;;;;;;5015087;28;19918;-24
2022/10/20 06:56:15;;;;;;;;;;;;;;;;;;5015024;28;19917;-23
2022/10/20 06:58:41;;;;;;;;;;;;;;;;;;5015063;28;19914;-23
2022/10/20 07:01:07;;;;;;;;;;;;;;;;;;5014941;28;19923;-23
2022/10/20 07:03:33;;;;;;;;;;;;;;;;;;5015262;28;19932;-24
2022/10/20 07:05:59;;;;;;;;;;;;;;;;;;5015075;28;19914;-24
2022/10/20 07:08:25;;;;;;;;;;;;;;;;;;5015166;28;20004;-23
2022/10/20 07:10:51;;;;;;;;;;;;;;;;;;5015322;28;19944;-23
2022/10/20 07:13:17;;;;;;;;;;;;;;;;;;5015221;28;19983;-24
2022/10/20 07:15:43;;;;;;;;;;;;;;;;;;5014793;28;19909;-23
2022/10/20 07:18:09;;;;;;;;;;;;;;;;;;5015126;28;20303;-23
2022/10/20 07:20:35;;;;;;;;;;;;;;;;;;5015026;28;19945;-23
2022/10/20 07:23:01;;;;;;;;;;;;;;;;;;5014664;28;20304;-24
2022/10/20 07:25:27;;;;;;;;;;;;;;;;;;5014810;28;19921;-23
2022/10/20 07:27:53;;;;;;;;;;;;;;;;;;5014861;28;19913;-24
2022/10/20 07:30:19;;;;;;;;;;;;;;;;;;5014611;28;19991;-24
2022/10/20 07:32:45;;;;;;;;;;;;;;;;;;4997458;28;19914;-23
2022/10/20 07:35:11;;;;;;;;;;;;;;;;;;5014791;28;19910;-23
2022/10/20 07:37:37;;;;;;;;;;;;;;;;;;5015072;28;19917;-25
2022/10/20 07:40:03;;;;;;;;;;;;;;;;;;4997276;28;20004;-25
2022/10/20 07:42:29;;;;;;;;;;;;;;;;;;5014367;28;19914;-25
2022/10/20 07:44:55;;;;;;;;;;;;;;;;;;5014793;28;19976;-23
2022/10/20 07:47:21;;;;;;;;;;;;;;;;;;5014465;28;19914;-23
2022/10/20 07:49:47;;;;;;;;;;;;;;;;;;5014426;28;19929;-23
2022/10/20 07:52:15;;;;;;;;;;;;;;;;;;5014499;28;19914;-24
2022/10/20 07:54:41;;;;;;;;;;;;;;;;;;5014470;28;19913;-23
2022/10/20 07:57:07;;;;;;;;;;;;;;;;;;5014486;28;19917;-23
2022/10/20 07:59:33;;;;;;;;;;;;;;;;;;5014774;28;19913;-24
2022/10/20 08:01:59;;;;;;;;;;;;;;;;;;5014619;28;19909;-24
2022/10/20 08:04:25;;;;;;;;;;;;;;;;;;5014168;28;20395;-24
2022/10/20 08:06:51;;;;;;;;;;;;;;;;;;5014367;28;19918;-24
2022/10/20 08:09:17;;;;;;;;;;;;;;;;;;5014538;28;19918;-23
2022/10/20 08:11:43;;;;;;;;;;;;;;;;;;5014341;28;19996;-24
2022/10/20 08:14:09;;;;;;;;;;;;;;;;;;5014219;28;19914;-24
2022/10/20 08:16:35;;;;;;;;;;;;;;;;;;5014409;28;20351;-24
2022/10/20 08:19:01;;;;;;;;;;;;;;;;;;5006110;28;19924;-24
2022/10/20 08:21:27;;;;;;;;;;;;;;;;;;5014425;28;19996;-24
2022/10/20 08:23:53;;;;;;;;;;;;;;;;;;5014240;28;19914;-24
2022/10/20 08:26:19;;;;;;;;;;;;;;;;;;5014513;28;19914;-24
2022/10/20 08:28:45;;;;;;;;;;;;;;;;;;5015852;28;19925;-24
2022/10/20 08:31:11;;;;;;;;;;;;;;;;;;5017897;28;19917;-24
2022/10/20 08:33:38;;;;;;;;;;;;;;;;;;5000439;28;20355;-24
2022/10/20 08:36:04;;;;;;;;;;;;;;;;;;5017635;28;20340;-25
2022/10/20 08:38:30;;;;;;;;;;;;;;;;;;5017828;28;19909;-24
2022/10/20 08:40:56;;;;;;;;;;;;;;;;;;5017968;28;19917;-24
2022/10/20 08:43:22;;;;;;;;;;;;;;;;;;5017441;28;20242;-24
2022/10/20 08:45:48;;;;;;;;;;;;;;;;;;5017139;28;20403;-24
2022/10/20 08:48:14;;;;;;;;;;;;;;;;;;5017186;28;20256;-23
2022/10/20 08:50:40;;;;;;;;;;;;;;;;;;5016972;28;19913;-24
2022/10/20 08:53:06;;;;;;;;;;;;;;;;;;5016922;28;19910;-24
2022/10/20 08:55:32;;;;;;;;;;;;;;;;;;5016986;28;19914;-24
2022/10/20 08:57:58;;;;;;;;;;;;;;;;;;5016869;28;19945;-25
2022/10/20 09:00:24;;;;;;;;;;;;;;;;;;5016988;28;20309;-25
2022/10/20 09:02:50;;;;;;;;;;;;;;;;;;5016578;28;19917;-25
2022/10/20 09:05:16;;;;;;;;;;;;;;;;;;5016758;28;19910;-25
2022/10/20 09:07:43;;;;;;;;;;;;;;;;;;5017415;28;19913;-25
2022/10/20 09:10:09;;;;;;;;;;;;;;;;;;5016792;28;19921;-25
2022/10/20 09:12:35;;;;;;;;;;;;;;;;;;5016519;28;19941;-25
2022/10/20 09:15:02;;;;;;;;;;;;;;;;;;5008369;28;20001;-25
2022/10/20 09:17:28;;;;;;;;;;;;;;;;;;4999100;28;20083;-25
2022/10/20 09:19:54;;;;;;;;;;;;;;;;;;5016289;28;20002;-24
2022/10/20 09:22:21;;;;;;;;;;;;;;;;;;5016759;28;19948;-25
2022/10/20 09:24:47;;;;;;;;;;;;;;;;;;5017155;28;20349;-23
2022/10/20 09:27:13;;;;;;;;;;;;;;;;;;5016916;28;19980;-24
2022/10/20 09:29:39;;;;;;;;;;;;;;;;;;5016596;28;19928;-23
2022/10/20 09:32:05;;;;;;;;;;;;;;;;;;5016349;28;19909;-23
2022/10/20 09:34:31;;;;;;;;;;;;;;;;;;4999015;28;20230;-24
2022/10/20 09:36:57;;;;;;;;;;;;;;;;;;5016096;28;19960;-23
2022/10/20 09:39:23;;;;;;;;;;;;;;;;;;5016436;28;19920;-23
2022/10/20 09:41:49;;;;;;;;;;;;;;;;;;5016879;28;19909;-24
2022/10/20 09:44:15;;;;;;;;;;;;;;;;;;5016455;28;19914;-23
2022/10/20 09:46:41;;;;;;;;;;;;;;;;;;5016581;28;19913;-23
2022/10/20 09:49:07;;;;;;;;;;;;;;;;;;5016278;28;19917;-23
2022/10/20 09:51:33;;;;;;;;;;;;;;;;;;5016293;28;19920;-24
2022/10/20 09:53:59;;;;;;;;;;;;;;;;;;5016052;28;20340;-23
2022/10/20 09:56:25;;;;;;;;;;;;;;;;;;5016030;28;19920;-24
2022/10/20 09:58:51;;;;;;;;;;;;;;;;;;5015839;28;19923;-24
2022/10/20 10:01:17;;;;;;;;;;;;;;;;;;5016003;28;19914;-23
2022/10/20 10:03:43;;;;;;;;;;;;;;;;;;5015669;28;19980;-24
2022/10/20 10:06:10;;;;;;;;;;;;;;;;;;5015851;28;19914;-23
2022/10/20 10:08:35;;;;;;;;;;;;;;;;;;5015841;28;19913;-23
2022/10/20 10:11:02;;;;;;;;;;;;;;;;;;5007560;28;19914;-23
2022/10/20 10:13:28;;;;;;;;;;;;;;;;;;5015461;28;19971;-23
2022/10/20 10:15:54;;;;;;;;;;;;;;;;;;5015561;28;19913;-24
2022/10/20 10:18:20;;;;;;;;;;;;;;;;;;5015623;28;19914;-23
2022/10/20 10:20:46;;;;;;;;;;;;;;;;;;5015619;28;19920;-23
2022/10/20 10:23:12;;;;;;;;;;;;;;;;;;5015749;28;20263;-24
2022/10/20 10:25:38;;;;;;;;;;;;;;;;;;5015842;28;19909;-24
2022/10/20 10:28:05;;;;;;;;;;;;;;;;;;5015695;28;20328;-24
2022/10/20 10:30:31;;;;;;;;;;;;;;;;;;5015855;28;19921;-23
2022/10/20 10:32:57;;;;;;;;;;;;;;;;;;5015516;28;19916;-24
2022/10/20 10:35:23;;;;;;;;;;;;;;;;;;5015824;28;19914;-24
2022/10/20 10:37:53;;;;;;;;;;;;;;;;;;5018121;28;20252;-24
2022/10/20 10:46:03;;;;;;;;;;;;;;;;;;5019302;28;19980;-24
2022/10/20 10:48:41;;;;;;;;;;;;;;;;;;5019173;28;19941;-24
2022/10/20 10:51:12;;;;;;;;;;;;;;;;;;5001065;28;20304;-24
2022/10/20 10:54:03;;;;;;;;;;;;;;;;;;5019446;28;19913;-25
2022/10/20 10:59:16;;;;;;;;;;;;;;;;;;5018611;28;19925;-24
2022/10/20 11:01:45;;;;;;;;;;;;;;;;;;5019277;28;19924;-23
2022/10/20 11:04:31;;;;;;;;;;;;;;;;;;5002396;28;20086;-23
2022/10/20 11:09:46;;;;;;;;;;;;;;;;;;5056699;28;20007;-25
2022/10/20 11:12:51;;;;;;;;;;;;;;;;;;5057713;28;20042;-25
2022/10/20 11:15:24;;;;;;;;;;;;;;;;;;5057836;28;19924;-25
2022/10/20 11:18:05;;;;;;;;;;;;;;;;;;5058533;28;19913;-25
2022/10/20 11:20:38;;;;;;;;;;;;;;;;;;5057602;28;19909;-25
2022/10/20 11:23:10;;;;;;;;;;;;;;;;;;5057867;28;19998;-25
2022/10/20 11:39:32;;;;;;;;;;;;;;;;;;5052515;28;19951;-24
2022/10/20 11:41:58;;;;;;;;;;;;;;;;;;5054163;28;19913;-24
2022/10/20 11:44:24;;;;;;;;;;;;;;;;;;5054049;28;19924;-24
2022/10/20 11:46:50;;;;;;;;;;;;;;;;;;5054293;28;19956;-24
2022/10/20 11:49:16;;;;;;;;;;;;;;;;;;5054094;28;20037;-23
2022/10/20 11:51:42;;;;;;;;;;;;;;;;;;5053224;28;19957;-25
2022/10/20 11:54:08;;;;;;;;;;;;;;;;;;5054450;28;19955;-25
2022/10/20 11:56:34;;;;;;;;;;;;;;;;;;5053427;28;19917;-24
2022/10/20 11:59:00;;;;;;;;;;;;;;;;;;5054259;28;19913;-24
2022/10/20 12:01:26;;;;;;;;;;;;;;;;;;5054473;28;19912;-24
2022/10/20 12:03:52;;;;;;;;;;;;;;;;;;5057050;28;19923;-24
2022/10/20 12:06:18;;;;;;;;;;;;;;;;;;5058123;28;19970;-23
2022/10/20 12:08:44;;;;;;;;;;;;;;;;;;5057894;28;20242;-24
2022/10/20 12:11:10;;;;;;;;;;;;;;;;;;5056949;28;19912;-24
2022/10/20 12:13:36;;;;;;;;;;;;;;;;;;5056919;28;20251;-24
2022/10/20 12:16:02;;;;;;;;;;;;;;;;;;5058134;28;19909;-24
2022/10/20 12:18:28;;;;;;;;;;;;;;;;;;5057871;28;19913;-24
2022/10/20 12:20:55;;;;;;;;;;;;;;;;;;5057645;28;19927;-24
2022/10/20 12:23:21;;;;;;;;;;;;;;;;;;5057308;28;19962;-24
2022/10/20 12:25:47;;;;;;;;;;;;;;;;;;5057897;28;19909;-24
2022/10/20 12:28:13;;;;;;;;;;;;;;;;;;5057617;28;19908;-24
2022/10/20 12:30:39;;;;;;;;;;;;;;;;;;5058188;28;19927;-23
2022/10/20 12:33:05;;;;;;;;;;;;;;;;;;5057608;28;19909;-24
2022/10/20 12:35:31;;;;;;;;;;;;;;;;;;5057651;28;19917;-24
2022/10/20 12:37:57;;;;;;;;;;;;;;;;;;5057061;28;19921;-24
2022/10/20 12:40:24;;;;;;;;;;;;;;;;;;5057724;28;20243;-24
2022/10/20 12:42:50;;;;;;;;;;;;;;;;;;5057279;28;20462;-24
2022/10/20 12:45:16;;;;;;;;;;;;;;;;;;5057113;28;19952;-24
2022/10/20 12:47:42;;;;;;;;;;;;;;;;;;5057346;28;19948;-24
2022/10/20 12:50:08;;;;;;;;;;;;;;;;;;5056777;28;19943;-24
2022/10/20 12:52:34;;;;;;;;;;;;;;;;;;5057183;28;20092;-24
2022/10/20 12:55:00;;;;;;;;;;;;;;;;;;5057313;28;19940;-24
2022/10/20 12:57:26;;;;;;;;;;;;;;;;;;5056996;28;20009;-24
2022/10/20 12:59:52;;;;;;;;;;;;;;;;;;5056735;28;19913;-24
2022/10/20 13:02:18;;;;;;;;;;;;;;;;;;5056912;28;19919;-24
2022/10/20 13:04:44;;;;;;;;;;;;;;;;;;5055790;28;20262;-24
2022/10/20 13:07:10;;;;;;;;;;;;;;;;;;5056879;28;20011;-24
2022/10/20 13:09:36;;;;;;;;;;;;;;;;;;5056919;28;20004;-24
2022/10/20 13:12:03;;;;;;;;;;;;;;;;;;5056625;28;19912;-29
2022/10/20 13:14:29;;;;;;;;;;;;;;;;;;5055016;28;20239;-24
2022/10/20 13:16:55;;;;;;;;;;;;;;;;;;5056719;28;20247;-24
2022/10/20 13:19:21;;;;;;;;;;;;;;;;;;5056586;28;19912;-24
2022/10/20 13:21:47;;;;;;;;;;;;;;;;;;5056569;28;19919;-24
2022/10/20 13:24:13;;;;;;;;;;;;;;;;;;5056723;28;20405;-24
2022/10/20 13:26:39;;;;;;;;;;;;;;;;;;5056374;28;19923;-23
2022/10/20 13:29:05;;;;;;;;;;;;;;;;;;5056253;28;20019;-23
2022/10/20 13:31:31;;;;;;;;;;;;;;;;;;5055642;28;20003;-24
2022/10/20 13:34:02;;;;;;;;;;;;;;;;;;5056731;28;19913;-24
2022/10/20 13:36:28;;;;;;;;;;;;;;;;;;5056615;28;20222;-23
2022/10/20 13:38:54;;;;;;;;;;;;;;;;;;5056004;28;20359;-24
2022/10/20 13:41:20;;;;;;;;;;;;;;;;;;5056206;28;19962;-24
2022/10/20 13:43:46;;;;;;;;;;;;;;;;;;5056086;28;19913;-24
2022/10/20 13:46:12;;;;;;;;;;;;;;;;;;5056228;28;19909;-23
2022/10/20 13:48:38;;;;;;;;;;;;;;;;;;5055128;28;20314;-24
2022/10/20 13:51:04;;;;;;;;;;;;;;;;;;5056269;28;19913;-23
2022/10/20 13:53:30;;;;;;;;;;;;;;;;;;5055942;28;19917;-23
2022/10/20 13:55:56;;;;;;;;;;;;;;;;;;5055963;28;20181;-23
2022/10/20 13:58:22;;;;;;;;;;;;;;;;;;5054851;28;19913;-24
2022/10/20 14:00:48;;;;;;;;;;;;;;;;;;5055856;28;19909;-24
2022/10/20 14:03:14;;;;;;;;;;;;;;;;;;5055609;28;19944;-23
2022/10/20 14:05:40;;;;;;;;;;;;;;;;;;5055685;28;19916;-24
2022/10/20 14:08:06;;;;;;;;;;;;;;;;;;5055701;28;19913;-24
2022/10/20 14:10:32;;;;;;;;;;;;;;;;;;5055525;28;19939;-23
2022/10/20 14:12:58;;;;;;;;;;;;;;;;;;5054312;28;20004;-23
2022/10/20 14:15:24;;;;;;;;;;;;;;;;;;5055439;28;20367;-24
2022/10/20 14:17:50;;;;;;;;;;;;;;;;;;5055660;28;20254;-24
2022/10/20 14:20:16;;;;;;;;;;;;;;;;;;5055527;28;19913;-24
2022/10/20 14:22:42;;;;;;;;;;;;;;;;;;5055357;28;19924;-33
2022/10/20 14:25:08;;;;;;;;;;;;;;;;;;5054842;28;19913;-24
2022/10/20 14:27:34;;;;;;;;;;;;;;;;;;5054752;28;20327;-24
2022/10/20 14:30:00;;;;;;;;;;;;;;;;;;5054053;28;19916;-24
2022/10/20 14:32:26;;;;;;;;;;;;;;;;;;5054982;28;19913;-24
2022/10/20 14:34:52;;;;;;;;;;;;;;;;;;5055221;28;19908;-24
2022/10/20 14:37:18;;;;;;;;;;;;;;;;;;5054579;28;19996;-24
2022/10/20 14:39:44;;;;;;;;;;;;;;;;;;5053758;28;19966;-24
2022/10/20 14:42:10;;;;;;;;;;;;;;;;;;5055003;28;19920;-24
2022/10/20 14:44:36;;;;;;;;;;;;;;;;;;5054983;28;19913;-25
2022/10/20 14:47:03;;;;;;;;;;;;;;;;;;5054568;28;20402;-24
2022/10/20 14:49:29;;;;;;;;;;;;;;;;;;5054817;28;19913;-24
2022/10/20 14:51:55;;;;;;;;;;;;;;;;;;5053983;28;19923;-24
2022/10/20 14:54:21;;;;;;;;;;;;;;;;;;5055128;28;19917;-24
2022/10/20 14:56:48;;;;;;;;;;;;;;;;;;5053793;28;19943;-24
2022/10/20 14:59:14;;;;;;;;;;;;;;;;;;5054675;28;19932;-24
2022/10/20 15:01:47;;;;;;;;;;;;;;;;;;5053730;28;19919;-24
2022/10/20 15:04:14;;;;;;;;;;;;;;;;;;5053880;28;20498;-24
2022/10/20 15:06:40;;;;;;;;;;;;;;;;;;5054764;28;19909;-24
2022/10/20 15:09:06;;;;;;;;;;;;;;;;;;5054600;28;20399;-24
2022/10/20 15:11:32;;;;;;;;;;;;;;;;;;5053272;28;19921;-24
2022/10/20 15:13:57;;;;;;;;;;;;;;;;;;5054545;28;19974;-24
2022/10/20 15:16:24;;;;;;;;;;;;;;;;;;5052365;28;19962;-24
2022/10/20 15:18:49;;;;;;;;;;;;;;;;;;5053714;28;19912;-24
2022/10/20 15:21:15;;;;;;;;;;;;;;;;;;5053531;28;20210;-24
2022/10/20 15:23:41;;;;;;;;;;;;;;;;;;5054299;28;19909;-24
2022/10/20 15:26:07;;;;;;;;;;;;;;;;;;5053815;28;20281;-24
2022/10/20 15:28:33;;;;;;;;;;;;;;;;;;5052533;28;19919;-24
2022/10/20 15:30:59;;;;;;;;;;;;;;;;;;5053703;28;20055;-24
2022/10/20 15:33:26;;;;;;;;;;;;;;;;;;5053502;28;19913;-24
2022/10/20 15:35:52;;;;;;;;;;;;;;;;;;5053954;28;19920;-24
2022/10/20 15:38:18;;;;;;;;;;;;;;;;;;5056794;28;19920;-24
2022/10/20 15:40:44;;;;;;;;;;;;;;;;;;5058271;28;20160;-24
2022/10/20 15:43:10;;;;;;;;;;;;;;;;;;5058249;28;19909;-24
2022/10/20 15:45:36;;;;;;;;;;;;;;;;;;5058381;28;19919;-24
2022/10/20 15:48:02;;;;;;;;;;;;;;;;;;5058522;28;19908;-24
2022/10/20 15:50:28;;;;;;;;;;;;;;;;;;5058350;28;19916;-24
2022/10/20 15:52:54;;;;;;;;;;;;;;;;;;5058209;28;19908;-24
2022/10/20 15:55:21;;;;;;;;;;;;;;;;;;5058134;28;19916;-23
2022/10/20 15:57:47;;;;;;;;;;;;;;;;;;5056817;28;19913;-23
2022/10/20 16:00:13;;;;;;;;;;;;;;;;;;5056966;28;19931;-24
2022/10/20 16:02:39;;;;;;;;;;;;;;;;;;5058059;28;19924;-24
2022/10/20 16:05:05;;;;;;;;;;;;;;;;;;5058104;28;19917;-24
2022/10/20 16:07:31;;;;;;;;;;;;;;;;;;5056750;28;19963;-24
2022/10/20 16:09:57;;;;;;;;;;;;;;;;;;5056841;28;20399;-24
2022/10/20 16:12:24;;;;;;;;;;;;;;;;;;5057589;28;19913;-24
2022/10/20 16:14:50;;;;;;;;;;;;;;;;;;5057847;28;20353;-24
2022/10/20 16:17:16;;;;;;;;;;;;;;;;;;5057970;28;20011;-24
2022/10/20 16:19:42;;;;;;;;;;;;;;;;;;5057986;28;19994;-24
2022/10/20 16:22:08;;;;;;;;;;;;;;;;;;5057897;28;19917;-24
2022/10/20 16:24:34;;;;;;;;;;;;;;;;;;5057863;28;19999;-24
2022/10/20 16:27:02;;;;;;;;;;;;;;;;;;5057654;28;20015;-23
2022/10/20 16:29:28;;;;;;;;;;;;;;;;;;5057813;28;19917;-24
2022/10/20 16:31:54;;;;;;;;;;;;;;;;;;5058042;28;20339;-24
2022/10/20 16:34:20;;;;;;;;;;;;;;;;;;5056371;28;20355;-24
2022/10/20 16:36:46;;;;;;;;;;;;;;;;;;5057600;28;19962;-23
2022/10/20 16:39:14;;;;;;;;;;;;;;;;;;5057246;28;20279;-24
2022/10/20 16:41:41;;;;;;;;;;;;;;;;;;5057324;28;19916;-24
2022/10/20 16:44:06;;;;;;;;;;;;;;;;;;5056310;28;19970;-24
2022/10/20 16:46:33;;;;;;;;;;;;;;;;;;5056179;28;20260;-23
2022/10/20 16:48:59;;;;;;;;;;;;;;;;;;5055710;28;19963;-23
2022/10/20 16:51:25;;;;;;;;;;;;;;;;;;5056883;28;19916;-25
2022/10/20 16:53:51;;;;;;;;;;;;;;;;;;5057140;28;20260;-25
2022/10/20 16:56:17;;;;;;;;;;;;;;;;;;5057316;28;19981;-25
2022/10/20 16:58:43;;;;;;;;;;;;;;;;;;5057076;28;20399;-23
2022/10/20 17:01:09;;;;;;;;;;;;;;;;;;5056052;28;19973;-23
2022/10/20 17:03:35;;;;;;;;;;;;;;;;;;5055962;28;19924;-24
2022/10/20 17:06:01;;;;;;;;;;;;;;;;;;5056845;28;19908;-24
2022/10/20 17:08:29;;;;;;;;;;;;;;;;;;5057197;28;19909;-24
2022/10/20 17:10:55;;;;;;;;;;;;;;;;;;5057066;28;20326;-23
2022/10/20 17:13:21;;;;;;;;;;;;;;;;;;5057049;28;19974;-24
2022/10/20 17:15:47;;;;;;;;;;;;;;;;;;5056878;28;19916;-24
2022/10/20 17:18:13;;;;;;;;;;;;;;;;;;5056981;28;19956;-24
2022/10/20 17:20:39;;;;;;;;;;;;;;;;;;5055870;28;19948;-23
2022/10/20 17:23:05;;;;;;;;;;;;;;;;;;5056938;28;20347;-23
2022/10/20 17:25:31;;;;;;;;;;;;;;;;;;5056504;28;19951;-31
2022/10/20 17:27:59;;;;;;;;;;;;;;;;;;5055625;28;19935;-24
2022/10/20 17:30:25;;;;;;;;;;;;;;;;;;5056336;28;19996;-24